createdAt,value
2018-01-20T00:00:34.599Z,70.40
2018-01-20T00:03:02.122Z,68.40
2018-01-20T00:05:31.638Z,68.10
2018-01-20T00:07:59.158Z,66.80
2018-01-20T00:10:38.543Z,66.20
2018-01-20T00:13:06.062Z,66.30
2018-01-20T00:15:33.611Z,66.00
2018-01-20T00:18:04.065Z,64.80
2018-01-20T00:20:31.579Z,65.20
2018-01-20T00:23:00.044Z,66.00
2018-01-20T00:25:27.568Z,64.00
2018-01-20T00:27:55.127Z,64.60
2018-01-20T00:30:22.639Z,64.80
2018-01-20T00:32:50.965Z,64.50
2018-01-20T00:35:19.469Z,65.00
2018-01-20T00:37:48.963Z,63.50
2018-01-20T00:40:16.491Z,62.20
2018-01-20T00:42:44.056Z,62.60
2018-01-20T00:45:13.531Z,62.70
2018-01-20T00:47:41.047Z,62.10
2018-01-20T00:50:08.594Z,62.90
2018-01-20T00:52:37.090Z,63.60
2018-01-20T00:55:04.615Z,63.90
2018-01-20T00:57:33.602Z,63.70
2018-01-20T01:00:01.119Z,64.70
2018-01-20T01:02:29.790Z,65.60
2018-01-20T01:04:57.311Z,66.70
2018-01-20T01:07:24.839Z,66.30
2018-01-20T01:09:54.340Z,66.80
2018-01-20T01:12:21.866Z,68.40
2018-01-20T01:14:49.422Z,67.70
2018-01-20T01:17:16.951Z,67.20
2018-01-20T01:19:44.494Z,66.80
2018-01-20T01:22:12.014Z,67.70
2018-01-20T01:24:39.757Z,68.10
2018-01-20T01:27:08.294Z,68.30
2018-01-20T01:29:35.819Z,67.60
2018-01-20T01:32:03.380Z,67.70
2018-01-20T01:34:30.897Z,68.00
2018-01-20T01:36:58.641Z,68.50
2018-01-20T01:39:26.404Z,69.80
2018-01-20T01:41:53.986Z,69.10
2018-01-20T01:44:21.530Z,69.30
2018-01-20T01:46:49.050Z,69.90
2018-01-20T01:49:18.537Z,69.00
2018-01-20T01:51:46.073Z,70.20
2018-01-20T01:54:13.626Z,70.70
2018-01-20T01:56:41.148Z,71.00
2018-01-20T01:59:08.708Z,70.80
2018-01-20T02:01:36.236Z,71.30
2018-01-20T02:04:04.518Z,69.20
2018-01-20T02:06:32.830Z,69.60
2018-01-20T02:09:00.360Z,69.40
2018-01-20T02:11:28.199Z,69.50
2018-01-20T02:13:55.722Z,69.20
2018-01-20T02:16:23.876Z,68.70
2018-01-20T02:18:51.402Z,69.10
2018-01-20T02:21:18.926Z,67.60
2018-01-20T02:23:46.467Z,67.20
2018-01-20T02:26:14.774Z,66.80
2018-01-20T02:28:42.323Z,66.80
2018-01-20T02:31:09.850Z,66.90
2018-01-20T02:33:37.377Z,67.60
2018-01-20T02:36:05.689Z,66.30
2018-01-20T02:38:34.238Z,66.30
2018-01-20T02:41:01.773Z,66.00
2018-01-20T02:43:29.284Z,65.50
2018-01-20T02:45:56.851Z,65.40
2018-01-20T02:48:24.471Z,66.00
2018-01-20T02:50:52.022Z,65.90
2018-01-20T02:53:19.556Z,65.90
2018-01-20T02:55:47.114Z,67.70
2018-01-20T02:58:14.630Z,67.50
2018-01-20T03:00:42.189Z,68.70
2018-01-20T03:03:09.714Z,70.00
2018-01-20T03:05:37.270Z,70.40
2018-01-20T03:08:04.794Z,69.40
2018-01-20T03:10:32.342Z,70.80
2018-01-20T03:12:59.867Z,69.90
2018-01-20T03:15:27.410Z,70.20
2018-01-20T03:17:55.700Z,71.00
2018-01-20T03:20:23.214Z,71.00
2018-01-20T03:22:50.777Z,72.60
2018-01-20T03:25:18.513Z,72.70
2018-01-20T03:27:46.072Z,72.70
2018-01-20T03:30:13.590Z,72.30
2018-01-20T03:32:41.134Z,72.90
2018-01-20T03:35:08.665Z,72.40
2018-01-20T03:37:36.227Z,71.20
2018-01-20T03:40:03.767Z,71.20
2018-01-20T03:42:31.290Z,70.50
2018-01-20T03:44:59.603Z,70.30
2018-01-20T03:47:27.127Z,70.90
2018-01-20T03:49:55.442Z,71.40
2018-01-20T03:52:22.962Z,71.30
2018-01-20T03:54:50.504Z,71.20
2018-01-20T03:57:18.026Z,71.30
2018-01-20T03:59:46.500Z,72.60
2018-01-20T04:02:14.047Z,72.60
2018-01-20T04:04:41.573Z,73.70
2018-01-20T04:07:09.131Z,73.50
2018-01-20T04:09:36.651Z,75.50
2018-01-20T04:12:04.206Z,76.50
2018-01-20T04:14:31.731Z,78.20
2018-01-20T04:16:59.246Z,77.50
2018-01-20T04:19:26.799Z,78.20
2018-01-20T04:21:54.324Z,76.30
2018-01-20T04:24:21.874Z,75.30
2018-01-20T04:26:49.395Z,74.10
2018-01-20T04:29:16.922Z,73.90
2018-01-20T04:31:44.467Z,73.00
2018-01-20T04:34:11.987Z,72.00
2018-01-20T04:36:40.298Z,71.50
2018-01-20T04:39:07.828Z,71.50
2018-01-20T04:41:35.385Z,72.90
2018-01-20T04:44:02.906Z,72.50
2018-01-20T04:46:31.196Z,75.30
2018-01-20T04:48:59.514Z,75.70
2018-01-20T04:51:27.049Z,74.70
2018-01-20T04:53:54.614Z,75.00
2018-01-20T04:56:23.115Z,76.30
2018-01-20T04:58:50.939Z,77.10
2018-01-20T05:01:19.236Z,79.10
2018-01-20T05:03:46.754Z,79.10
2018-01-20T05:06:16.254Z,77.40
2018-01-20T05:08:43.782Z,78.20
2018-01-20T05:11:11.328Z,78.20
2018-01-20T05:13:38.838Z,77.30
2018-01-20T05:16:06.448Z,77.40
2018-01-20T05:18:34.941Z,77.50
2018-01-20T05:21:03.412Z,77.20
2018-01-20T05:23:31.898Z,76.60
2018-01-20T05:25:59.413Z,77.00
2018-01-20T05:28:26.965Z,77.70
2018-01-20T05:30:54.494Z,77.30
2018-01-20T05:33:22.038Z,77.30
2018-01-20T05:35:49.562Z,77.40
2018-01-20T05:38:17.870Z,77.30
2018-01-20T05:40:45.398Z,77.30
2018-01-20T05:43:13.719Z,77.40
2018-01-20T05:45:41.266Z,77.40
2018-01-20T05:48:08.786Z,76.70
2018-01-20T05:50:37.098Z,76.70
2018-01-20T05:53:04.621Z,76.80
2018-01-20T05:55:33.094Z,76.20
2018-01-20T05:58:01.388Z,76.00
2018-01-20T06:00:28.966Z,76.00
2018-01-20T06:02:56.482Z,74.30
2018-01-20T06:05:23.994Z,74.30
2018-01-20T06:07:51.550Z,74.40
2018-01-20T06:10:19.071Z,74.40
2018-01-20T06:12:46.619Z,75.30
2018-01-20T06:15:15.890Z,74.40
2018-01-20T06:17:43.467Z,74.40
2018-01-20T06:20:10.990Z,75.10
2018-01-20T06:22:38.543Z,73.10
2018-01-20T06:25:06.287Z,72.90
2018-01-20T06:27:33.837Z,73.20
2018-01-20T06:30:01.400Z,74.10
2018-01-20T06:32:28.922Z,73.40
2018-01-20T06:34:57.234Z,72.30
2018-01-20T06:37:25.720Z,72.30
2018-01-20T06:39:55.221Z,71.00
2018-01-20T06:42:22.745Z,70.60
2018-01-20T06:44:50.410Z,71.10
2018-01-20T06:47:17.941Z,69.90
2018-01-20T06:49:45.500Z,71.10
2018-01-20T06:52:13.020Z,70.90
2018-01-20T06:54:41.484Z,70.80
2018-01-20T06:57:09.968Z,69.60
2018-01-20T06:59:38.261Z,70.80
2018-01-20T07:02:05.826Z,70.70
2018-01-20T07:04:33.345Z,69.80
2018-01-20T07:07:00.898Z,69.40
2018-01-20T07:09:28.419Z,69.50
2018-01-20T07:11:55.968Z,69.60
2018-01-20T07:14:23.515Z,70.30
2018-01-20T07:16:51.040Z,70.90
2018-01-20T07:19:19.751Z,70.80
2018-01-20T07:21:47.275Z,71.40
2018-01-20T07:24:14.834Z,71.40
2018-01-20T07:26:42.598Z,70.40
2018-01-20T07:29:10.162Z,71.00
2018-01-20T07:31:37.687Z,70.90
2018-01-20T07:34:05.215Z,70.60
2018-01-20T07:36:32.767Z,70.50
2018-01-20T07:39:00.285Z,71.80
2018-01-20T07:41:27.840Z,71.80
2018-01-20T07:43:55.374Z,71.00
2018-01-20T07:46:22.932Z,70.50
2018-01-20T07:48:50.452Z,70.30
2018-01-20T07:51:17.982Z,69.70
2018-01-20T07:53:45.592Z,70.70
2018-01-20T07:56:13.119Z,70.10
2018-01-20T07:58:40.665Z,70.70
2018-01-20T08:01:08.190Z,69.90
2018-01-20T08:03:35.741Z,71.00
2018-01-20T08:06:03.267Z,70.00
2018-01-20T08:08:30.795Z,70.20
2018-01-20T08:10:58.353Z,70.20
2018-01-20T08:13:25.897Z,69.40
2018-01-20T08:15:53.452Z,69.40
2018-01-20T08:18:21.948Z,69.30
2018-01-20T08:20:49.492Z,69.20
2018-01-20T08:23:17.010Z,68.80
2018-01-20T08:25:44.595Z,70.10
2018-01-20T08:28:12.111Z,69.30
2018-01-20T08:30:39.650Z,70.90
2018-01-20T08:33:08.151Z,70.90
2018-01-20T08:35:35.670Z,71.90
2018-01-20T08:38:03.215Z,72.00
2018-01-20T08:40:30.743Z,70.20
2018-01-20T08:42:58.290Z,70.90
2018-01-20T08:45:25.811Z,70.60
2018-01-20T08:47:53.355Z,68.00
2018-01-20T08:50:20.878Z,67.90
2018-01-20T08:52:48.400Z,67.10
2018-01-20T08:55:15.950Z,67.70
2018-01-20T08:57:43.470Z,68.60
2018-01-20T09:00:11.063Z,67.00
2018-01-20T09:02:38.585Z,68.10
2018-01-20T09:05:07.051Z,66.20
2018-01-20T09:07:34.576Z,65.80
2018-01-20T09:10:02.133Z,66.70
2018-01-20T09:12:30.488Z,65.60
2018-01-20T09:14:59.948Z,65.60
2018-01-20T09:17:27.466Z,66.40
2018-01-20T09:19:55.774Z,66.10
2018-01-20T09:22:23.333Z,66.00
2018-01-20T09:24:50.854Z,65.80
2018-01-20T09:27:20.337Z,66.50
2018-01-20T09:29:47.855Z,67.10
2018-01-20T09:32:15.404Z,67.00
2018-01-20T09:34:42.927Z,66.90
2018-01-20T09:37:10.479Z,67.30
2018-01-20T09:39:38.962Z,68.70
2018-01-20T09:42:06.483Z,69.40
2018-01-20T09:44:34.794Z,71.70
2018-01-20T09:47:02.322Z,71.70
2018-01-20T09:49:29.870Z,71.30
2018-01-20T09:51:57.382Z,70.50
2018-01-20T09:54:24.938Z,71.20
2018-01-20T09:56:52.458Z,71.60
2018-01-20T09:59:20.019Z,72.30
2018-01-20T10:01:47.559Z,73.00
2018-01-20T10:04:15.078Z,68.60
2018-01-20T10:06:44.596Z,67.70
2018-01-20T10:09:12.114Z,67.10
2018-01-20T10:11:39.664Z,68.60
2018-01-20T10:14:07.235Z,67.70
2018-01-20T10:16:36.063Z,67.90
2018-01-20T10:19:06.589Z,65.10
2018-01-20T10:21:34.193Z,65.20
2018-01-20T10:24:01.712Z,64.50
2018-01-20T10:26:30.027Z,63.60
2018-01-20T10:28:57.542Z,64.40
2018-01-20T10:31:26.863Z,65.60
2018-01-20T10:33:54.386Z,65.60
2018-01-20T10:36:21.907Z,65.20
2018-01-20T10:38:49.451Z,65.10
2018-01-20T10:41:17.018Z,64.50
2018-01-20T10:43:44.621Z,64.90
2018-01-20T10:46:12.137Z,64.30
2018-01-20T10:48:40.452Z,63.40
2018-01-20T10:51:07.970Z,63.40
2018-01-20T10:53:35.489Z,63.50
2018-01-20T10:56:03.795Z,64.10
2018-01-20T10:58:31.326Z,64.20
2018-01-20T11:00:58.870Z,64.90
2018-01-20T11:03:26.394Z,62.60
2018-01-20T11:05:53.955Z,63.60
2018-01-20T11:08:21.479Z,63.10
2018-01-20T11:10:49.005Z,61.50
2018-01-20T11:13:17.322Z,59.20
2018-01-20T11:15:44.846Z,59.10
2018-01-20T11:18:13.160Z,58.60
2018-01-20T11:20:40.694Z,58.60
2018-01-20T11:23:11.007Z,57.20
2018-01-20T11:25:40.294Z,59.90
2018-01-20T11:28:07.842Z,60.00
2018-01-20T11:30:35.355Z,60.40
2018-01-20T11:33:02.904Z,60.20
2018-01-20T11:35:30.427Z,62.10
2018-01-20T11:37:57.950Z,64.10
2018-01-20T11:40:25.502Z,65.00
2018-01-20T11:42:53.015Z,63.10
2018-01-20T11:45:21.342Z,62.50
2018-01-20T11:47:48.882Z,62.40
2018-01-20T11:50:17.425Z,60.80
2018-01-20T11:52:44.964Z,60.10
2018-01-20T11:55:12.996Z,58.70
2018-01-20T11:57:40.526Z,58.90
2018-01-20T12:00:09.807Z,57.30
2018-01-20T12:02:37.414Z,57.30
2018-01-20T12:05:05.862Z,57.50
2018-01-20T12:07:34.239Z,59.40
2018-01-20T12:10:01.766Z,59.40
2018-01-20T12:12:29.361Z,58.90
2018-01-20T12:14:56.878Z,57.80
2018-01-20T12:17:24.431Z,57.80
2018-01-20T12:19:52.103Z,58.80
2018-01-20T12:22:20.637Z,58.40
2018-01-20T12:24:48.168Z,58.10
2018-01-20T12:27:15.715Z,57.30
2018-01-20T12:29:44.266Z,56.70
2018-01-20T12:32:12.748Z,58.10
2018-01-20T12:34:40.302Z,57.10
2018-01-20T12:37:07.930Z,56.60
2018-01-20T12:39:36.422Z,57.20
2018-01-20T12:42:03.958Z,58.10
2018-01-20T12:44:32.505Z,58.90
2018-01-20T12:47:00.091Z,58.00
2018-01-20T12:49:27.618Z,58.00
2018-01-20T12:51:55.335Z,57.90
2018-01-20T12:54:22.877Z,59.20
2018-01-20T12:56:50.473Z,59.50
2018-01-20T12:59:18.004Z,58.30
2018-01-20T13:01:47.490Z,58.70
2018-01-20T13:04:15.007Z,59.00
2018-01-20T13:06:42.556Z,59.50
2018-01-20T13:09:11.046Z,59.30
2018-01-20T13:11:38.579Z,59.30
2018-01-20T13:14:06.126Z,60.10
2018-01-20T13:16:33.649Z,57.90
2018-01-20T13:19:01.959Z,60.00
2018-01-20T13:21:29.476Z,60.00
2018-01-20T13:23:57.018Z,59.40
2018-01-20T13:26:24.560Z,59.20
2018-01-20T13:28:54.049Z,58.70
2018-01-20T13:31:21.712Z,60.40
2018-01-20T13:33:49.252Z,60.60
2018-01-20T13:36:17.532Z,60.60
2018-01-20T13:38:45.110Z,60.60
2018-01-20T13:41:12.963Z,60.20
2018-01-20T13:43:41.246Z,59.70
2018-01-20T13:46:08.791Z,59.70
2018-01-20T13:48:37.087Z,59.60
2018-01-20T13:51:04.854Z,59.50
2018-01-20T13:53:32.869Z,58.20
2018-01-20T13:56:00.410Z,59.00
2018-01-20T13:58:28.193Z,58.70
2018-01-20T14:00:56.686Z,59.60
2018-01-20T14:03:25.093Z,58.60
2018-01-20T14:05:52.650Z,59.60
2018-01-20T14:08:20.203Z,60.20
2018-01-20T14:10:47.717Z,61.10
2018-01-20T14:13:15.232Z,59.70
2018-01-20T14:15:42.803Z,59.40
2018-01-20T14:18:10.323Z,60.30
2018-01-20T14:20:37.867Z,60.90
2018-01-20T14:23:05.379Z,61.20
2018-01-20T14:25:32.930Z,60.90
2018-01-20T14:28:00.451Z,62.20
2018-01-20T14:30:27.994Z,61.30
2018-01-20T14:32:55.506Z,60.50
2018-01-20T14:35:23.051Z,62.60
2018-01-20T14:37:52.317Z,62.40
2018-01-20T14:40:19.847Z,62.40
2018-01-20T14:42:47.401Z,61.80
2018-01-20T14:45:14.920Z,63.60
2018-01-20T14:47:43.226Z,64.10
2018-01-20T14:50:10.742Z,64.10
2018-01-20T14:52:38.290Z,65.00
2018-01-20T14:55:08.371Z,64.60
2018-01-20T14:57:36.758Z,64.60
2018-01-20T15:00:04.324Z,64.50
2018-01-20T15:02:31.850Z,65.00
2018-01-20T15:04:59.399Z,64.80
2018-01-20T15:07:26.916Z,64.30
2018-01-20T15:09:54.467Z,65.70
2018-01-20T15:12:21.984Z,65.20
2018-01-20T15:14:49.538Z,64.00
2018-01-20T15:17:17.092Z,65.00
2018-01-20T15:19:44.647Z,64.60
2018-01-20T15:22:12.932Z,64.80
2018-01-20T15:24:40.438Z,64.80
2018-01-20T15:27:07.979Z,64.00
2018-01-20T15:29:35.498Z,63.60
2018-01-20T15:32:03.056Z,64.50
2018-01-20T15:34:30.588Z,64.20
2018-01-20T15:36:58.135Z,64.00
2018-01-20T15:39:25.654Z,64.00
2018-01-20T15:41:55.173Z,64.70
2018-01-20T15:44:22.718Z,64.90
2018-01-20T15:46:50.226Z,65.90
2018-01-20T15:49:17.786Z,66.40
2018-01-20T15:51:45.310Z,67.80
2018-01-20T15:54:12.867Z,66.50
2018-01-20T15:56:41.339Z,66.90
2018-01-20T15:59:08.882Z,67.70
2018-01-20T16:01:36.637Z,68.80
2018-01-20T16:04:04.183Z,69.80
2018-01-20T16:06:32.472Z,69.60
2018-01-20T16:09:00.006Z,69.60
2018-01-20T16:11:27.562Z,70.70
2018-01-20T16:13:55.152Z,70.20
2018-01-20T16:16:23.662Z,69.30
2018-01-20T16:18:51.183Z,69.70
2018-01-20T16:21:18.732Z,69.70
2018-01-20T16:23:47.020Z,71.10
2018-01-20T16:26:15.346Z,72.10
2018-01-20T16:28:42.867Z,72.10
2018-01-20T16:31:10.390Z,73.80
2018-01-20T16:33:37.950Z,75.20
2018-01-20T16:36:06.279Z,78.40
2018-01-20T16:38:33.818Z,78.40
2018-01-20T16:41:01.388Z,80.90
2018-01-20T16:43:28.938Z,82.40
2018-01-20T16:45:56.468Z,83.50
2018-01-20T16:48:24.771Z,82.60
2018-01-20T16:50:52.309Z,82.60
2018-01-20T16:53:20.623Z,83.50
2018-01-20T16:55:48.159Z,83.50
2018-01-20T16:58:15.718Z,82.90
2018-01-20T17:00:43.250Z,84.90
2018-01-20T17:03:11.729Z,83.80
2018-01-20T17:05:39.278Z,83.40
2018-01-20T17:08:06.797Z,84.10
2018-01-20T17:10:35.295Z,84.70
2018-01-20T17:13:02.806Z,84.20
2018-01-20T17:15:32.285Z,84.50
2018-01-20T17:18:01.542Z,83.90
2018-01-20T17:20:29.083Z,83.80
2018-01-20T17:22:56.607Z,84.50
2018-01-20T17:25:24.190Z,84.20
2018-01-20T17:27:52.474Z,85.80
2018-01-20T17:30:20.001Z,85.90
2018-01-20T17:32:47.546Z,86.00
2018-01-20T17:35:15.074Z,85.10
2018-01-20T17:37:42.663Z,84.80
2018-01-20T17:40:10.200Z,85.00
2018-01-20T17:42:37.748Z,86.40
2018-01-20T17:45:06.071Z,86.60
2018-01-20T17:47:34.394Z,87.50
2018-01-20T17:50:01.932Z,87.50
2018-01-20T17:52:29.470Z,86.90
2018-01-20T17:54:57.027Z,88.00
2018-01-20T17:57:24.555Z,87.90
2018-01-20T17:59:52.099Z,86.80
2018-01-20T18:02:19.624Z,87.10
2018-01-20T18:04:48.707Z,86.40
2018-01-20T18:07:16.253Z,86.40
2018-01-20T18:09:43.806Z,86.60
2018-01-20T18:12:12.087Z,86.30
2018-01-20T18:14:41.602Z,86.40
2018-01-20T18:17:09.882Z,87.40
2018-01-20T18:19:37.414Z,87.30
2018-01-20T18:22:04.978Z,87.40
2018-01-20T18:24:33.271Z,87.50
2018-01-20T18:27:01.593Z,87.70
2018-01-20T18:29:29.122Z,87.70
2018-01-20T18:31:56.674Z,88.30
2018-01-20T18:34:24.958Z,88.10
2018-01-20T18:36:52.489Z,88.70
2018-01-20T18:39:21.986Z,88.20
2018-01-20T18:41:49.518Z,88.20
2018-01-20T18:44:17.081Z,88.20
2018-01-20T18:46:44.622Z,87.60
2018-01-20T18:49:14.142Z,87.50
2018-01-20T18:51:41.671Z,86.80
2018-01-20T18:54:09.191Z,87.80
2018-01-20T18:56:37.782Z,86.80
2018-01-20T18:59:05.306Z,86.60
2018-01-20T19:01:32.861Z,88.60
2018-01-20T19:04:00.395Z,88.80
2018-01-20T19:06:27.946Z,87.80
2018-01-20T19:08:55.465Z,88.70
2018-01-20T19:11:22.994Z,88.90
2018-01-20T19:13:50.550Z,89.40
2018-01-20T19:16:18.074Z,87.00
2018-01-20T19:18:45.614Z,88.30
2018-01-20T19:21:15.157Z,90.20
2018-01-20T19:23:42.732Z,89.90
2018-01-20T19:26:10.273Z,90.00
2018-01-20T19:28:37.808Z,90.00
2018-01-20T19:31:05.362Z,90.00
2018-01-20T19:33:32.879Z,89.20
2018-01-20T19:36:00.472Z,88.00
2018-01-20T19:38:27.987Z,87.90
2018-01-20T19:40:55.539Z,87.00
2018-01-20T19:43:23.067Z,87.50
2018-01-20T19:45:50.620Z,89.70
2018-01-20T19:48:18.142Z,89.50
2018-01-20T19:50:45.670Z,88.50
2018-01-20T19:53:13.218Z,88.90
2018-01-20T19:55:41.714Z,89.70
2018-01-20T19:58:09.262Z,88.40
2018-01-20T20:00:36.784Z,86.70
2018-01-20T20:03:07.104Z,88.10
2018-01-20T20:05:36.394Z,87.30
2018-01-20T20:08:03.916Z,87.50
2018-01-20T20:10:31.472Z,86.70
2018-01-20T20:12:58.988Z,87.00
2018-01-20T20:15:27.317Z,85.90
2018-01-20T20:17:55.844Z,85.90
2018-01-20T20:20:24.155Z,85.40
2018-01-20T20:22:51.677Z,85.40
2018-01-20T20:25:19.372Z,85.70
2018-01-20T20:27:46.981Z,85.50
2018-01-20T20:30:14.522Z,84.80
2018-01-20T20:32:42.075Z,85.70
2018-01-20T20:35:09.603Z,85.40
2018-01-20T20:37:37.156Z,85.40
2018-01-20T20:40:05.699Z,84.70
2018-01-20T20:42:33.983Z,85.40
2018-01-20T20:45:01.538Z,85.40
2018-01-20T20:47:29.074Z,84.70
2018-01-20T20:49:56.643Z,84.10
2018-01-20T20:52:24.221Z,85.00
2018-01-20T20:54:52.538Z,84.60
2018-01-20T20:57:20.062Z,84.60
2018-01-20T20:59:47.599Z,83.40
2018-01-20T21:02:15.165Z,83.30
2018-01-20T21:04:42.702Z,82.90
2018-01-20T21:07:11.213Z,82.10
2018-01-20T21:09:38.739Z,82.60
2018-01-20T21:12:06.332Z,81.30
2018-01-20T21:14:33.847Z,81.80
2018-01-20T21:17:01.380Z,81.90
2018-01-20T21:19:28.952Z,82.50
2018-01-20T21:21:57.432Z,82.90
2018-01-20T21:24:24.983Z,83.70
2018-01-20T21:26:52.753Z,83.30
2018-01-20T21:29:22.323Z,84.60
2018-01-20T21:31:49.882Z,85.40
2018-01-20T21:34:17.398Z,85.00
2018-01-20T21:36:45.719Z,83.70
2018-01-20T21:39:13.512Z,83.60
2018-01-20T21:41:43.241Z,83.60
2018-01-20T21:44:10.763Z,83.70
2018-01-20T21:46:39.069Z,83.90
2018-01-20T21:49:06.583Z,83.90
2018-01-20T21:51:34.211Z,83.60
2018-01-20T21:54:01.944Z,83.50
2018-01-20T21:56:29.498Z,84.30
2018-01-20T21:58:57.017Z,85.00
2018-01-20T22:01:24.548Z,85.40
2018-01-20T22:03:52.091Z,84.90
2018-01-20T22:06:19.637Z,84.90
2018-01-20T22:08:47.208Z,85.50
2018-01-20T22:11:14.741Z,85.00
2018-01-20T22:13:48.199Z,85.20
2018-01-20T22:16:15.729Z,85.30
2018-01-20T22:18:43.286Z,85.50
2018-01-20T22:21:10.798Z,85.10
2018-01-20T22:23:38.351Z,84.50
2018-01-20T22:26:05.870Z,84.60
2018-01-20T22:28:34.350Z,84.30
2018-01-20T22:31:03.863Z,84.90
2018-01-20T22:33:31.390Z,84.50
2018-01-20T22:35:58.931Z,84.10
2018-01-20T22:38:27.210Z,84.90
2018-01-20T22:40:55.519Z,85.40
2018-01-20T22:43:23.044Z,85.50
2018-01-20T22:45:51.355Z,85.40
2018-01-20T22:48:18.870Z,85.40
2018-01-20T22:50:46.442Z,85.40
2018-01-20T22:53:14.731Z,85.40
2018-01-20T22:55:42.271Z,85.40
2018-01-20T22:58:11.528Z,85.60
2018-01-20T23:00:39.059Z,85.60
2018-01-20T23:03:06.617Z,85.70
2018-01-20T23:05:34.138Z,85.70
2018-01-20T23:08:04.485Z,85.80
2018-01-20T23:10:32.011Z,85.80
2018-01-20T23:12:59.530Z,86.10
2018-01-20T23:15:27.079Z,85.60
2018-01-20T23:17:54.603Z,85.40
2018-01-20T23:20:22.158Z,85.80
2018-01-20T23:22:51.402Z,86.40
2018-01-20T23:25:18.955Z,86.40
2018-01-20T23:27:46.476Z,86.40
2018-01-20T23:30:14.022Z,86.40
2018-01-20T23:32:41.574Z,86.80
2018-01-20T23:35:09.099Z,87.70
2018-01-20T23:37:36.655Z,88.10
2018-01-20T23:40:04.171Z,90.00
2018-01-20T23:42:32.487Z,91.30
2018-01-20T23:45:00.003Z,91.30
2018-01-20T23:47:28.302Z,92.30
2018-01-20T23:49:55.852Z,92.20
2018-01-20T23:52:23.378Z,92.10
2018-01-20T23:54:50.942Z,93.20
2018-01-20T23:57:19.236Z,93.10
2018-01-20T23:59:47.546Z,92.50
